Time;durP1;ratioP1;P1;durP2;ratioP2;P2;SDS_P1;SDS_P2;PMS_P1;PMS_P2;Temp;Humidity;BMP_temperature;BMP_pressure;BME280_temperature;BME280_humidity;BME280_pressure;Samples;Min_cycle;Max_cycle;Signal;HPM_P1;HPM_P2
2021/12/15 00:00:08;;;;;;;6.72;4.42;;;;;;;1.16;100.00;100079.06;1696566;83;21069;-78
2021/12/15 00:02:37;;;;;;;6.75;4.70;;;;;;;1.16;100.00;100067.95;1702230;83;21058;-79
2021/12/15 00:05:06;;;;;;;7.28;4.55;;;;;;;1.15;100.00;100063.67;1697392;83;21029;-79
2021/12/15 00:07:33;;;;;;;4.92;4.05;;;;;;;1.14;100.00;100057.70;1689015;84;21162;-79
2021/12/15 00:09:59;;;;;;;8.00;4.53;;;;;;;1.12;100.00;100056.83;1702432;83;21065;-79
2021/12/15 00:12:26;;;;;;;6.20;4.17;;;;;;;1.13;100.00;100063.66;1691459;84;21505;-80
2021/12/15 00:14:52;;;;;;;4.97;4.30;;;;;;;1.14;100.00;100057.70;1670806;83;21577;-79
2021/12/15 00:17:19;;;;;;;7.92;5.25;;;;;;;1.15;100.00;100062.39;1672963;84;21087;-80
2021/12/15 00:19:47;;;;;;;9.20;4.60;;;;;;;1.17;100.00;100067.97;1694594;83;21078;-79
2021/12/15 00:22:14;;;;;;;6.50;4.55;;;;;;;1.18;100.00;100072.66;1680422;83;21093;-79
2021/12/15 00:24:40;;;;;;;7.37;4.28;;;;;;;1.19;100.00;100078.22;1689858;83;21164;-79
2021/12/15 00:27:07;;;;;;;7.65;4.60;;;;;;;1.20;100.00;100077.37;1695357;83;21582;-79
2021/12/15 00:29:33;;;;;;;10.05;5.40;;;;;;;1.21;100.00;100076.50;1685655;83;20930;-79
2021/12/15 00:32:03;;;;;;;5.47;4.50;;;;;;;1.21;100.00;100073.94;1682908;83;21149;-79
2021/12/15 00:34:29;;;;;;;7.75;5.20;;;;;;;1.20;100.00;100068.41;1710174;83;21027;-79
2021/12/15 00:36:56;;;;;;;6.60;4.20;;;;;;;1.20;100.00;100074.36;1692093;84;21090;-79
2021/12/15 00:39:23;;;;;;;6.28;4.75;;;;;;;1.21;100.00;100082.48;1627094;86;20994;-79
2021/12/15 00:41:50;;;;;;;7.35;5.12;;;;;;;1.22;100.00;100079.50;1602279;86;21017;-79
2021/12/15 00:44:16;;;;;;;7.40;5.12;;;;;;;1.22;100.00;100079.50;1639012;86;21142;-79
2021/12/15 00:46:44;;;;;;;5.15;3.70;;;;;;;1.22;99.92;100085.90;1632514;86;20976;-79
2021/12/15 00:49:11;;;;;;;8.73;4.22;;;;;;;1.23;99.64;100082.07;1616866;87;21059;-79
2021/12/15 00:51:38;;;;;;;6.25;3.87;;;;;;;1.21;99.29;100076.08;1604339;87;21050;-79
2021/12/15 00:54:05;;;;;;;6.92;4.10;;;;;;;1.20;99.07;100069.69;1640422;87;21610;-79
2021/12/15 00:56:32;;;;;;;6.80;3.72;;;;;;;1.19;99.19;100071.81;1617743;87;21448;-79
2021/12/15 00:59:03;;;;;;;6.58;4.85;;;;;;;1.17;99.06;100069.25;1618116;86;21013;-79
2021/12/15 01:01:29;;;;;;;4.25;3.35;;;;;;;1.17;99.13;100076.93;1639318;87;21027;-79
2021/12/15 01:03:56;;;;;;;3.83;2.87;;;;;;;1.19;98.94;100073.95;1630973;87;21131;-79
2021/12/15 01:06:23;;;;;;;5.60;3.20;;;;;;;1.18;98.56;100079.07;1640824;87;21008;-80
2021/12/15 01:08:56;;;;;;;4.67;3.45;;;;;;;1.15;98.55;100079.91;1621236;87;21105;-79
2021/12/15 01:19:47;;;;;;;6.40;3.50;;;;;;;1.15;98.57;100074.78;1708382;82;21140;-79
2021/12/15 01:19:54;;;;;;;5.10;3.15;;;;;;;1.11;98.75;100076.89;1701992;83;20953;-79
2021/12/15 01:22:30;;;;;;;5.50;3.40;;;;;;;1.12;99.04;100076.46;1691793;83;21164;-79
2021/12/15 01:25:05;;;;;;;5.17;3.55;;;;;;;1.12;99.10;100066.22;1668748;83;21127;-79
2021/12/15 01:27:33;;;;;;;5.92;3.37;;;;;;;1.14;99.15;100060.68;1697213;83;21693;-79
2021/12/15 01:30:00;;;;;;;9.23;3.80;;;;;;;1.13;99.00;100067.51;1690519;83;21497;-79
2021/12/15 01:32:26;;;;;;;6.60;3.75;;;;;;;1.12;99.22;100066.22;1693731;83;21623;-78
2021/12/15 01:34:54;;;;;;;5.12;3.17;;;;;;;1.11;99.09;100065.78;1677628;84;22049;-79
2021/12/15 01:37:20;;;;;;;3.92;3.00;;;;;;;1.11;99.13;100065.78;1691233;83;21423;-79
2021/12/15 01:39:52;;;;;;;3.98;2.33;;;;;;;1.08;99.16;100055.09;1682469;83;20992;-80
2021/12/15 01:42:15;;;;;;;4.25;3.17;;;;;;;1.10;99.13;100059.80;1690801;83;21592;-79
2021/12/15 01:47:23;;;;;;;3.25;2.60;;;;;;;1.11;98.60;100054.25;1612132;86;21650;-79
2021/12/15 01:49:52;;;;;;;4.08;2.55;;;;;;;1.07;98.51;100062.34;1611926;86;21269;-79
2021/12/15 01:52:24;;;;;;;4.37;3.17;;;;;;;1.05;98.59;100065.30;1693000;83;21439;-79
2021/12/15 01:55:07;;;;;;;6.75;3.02;;;;;;;1.04;98.84;100060.61;1646237;86;21015;-79
2021/12/15 01:57:35;;;;;;;3.85;3.02;;;;;;;1.05;99.02;100066.59;1645755;86;21214;-79
2021/12/15 02:00:15;;;;;;;3.75;3.20;;;;;;;1.08;99.23;100063.20;1693497;83;21077;-80
2021/12/15 02:02:42;;;;;;;6.75;3.87;;;;;;;1.12;99.38;100052.12;1674130;83;20968;-80
2021/12/15 02:05:09;;;;;;;3.83;3.27;;;;;;;1.12;99.28;100052.98;1677837;83;21032;-80
2021/12/15 02:07:37;;;;;;;4.90;3.20;;;;;;;1.08;99.49;100049.96;1709402;83;21125;-79
2021/12/15 02:10:06;;;;;;;4.35;3.22;;;;;;;1.04;99.73;100057.19;1701518;83;20963;-80
2021/12/15 02:12:38;;;;;;;4.85;3.95;;;;;;;0.99;100.00;100057.61;1702853;83;21829;-80
2021/12/15 02:15:15;;;;;;;4.50;3.75;;;;;;;0.96;100.00;100069.11;1692502;83;20999;-82
2021/12/15 02:17:42;;;;;;;4.10;2.58;;;;;;;0.94;100.00;100058.85;1672556;83;21681;-79
2021/12/15 02:20:13;;;;;;;3.30;2.45;;;;;;;0.96;100.00;100058.44;1689905;83;21037;-79
2021/12/15 02:22:40;;;;;;;3.47;2.42;;;;;;;0.96;100.00;100052.46;1695867;83;21101;-80
2021/12/15 02:25:11;;;;;;;3.33;2.40;;;;;;;0.97;99.99;100056.73;1701134;83;21545;-80
2021/12/15 02:27:38;;;;;;;5.05;2.30;;;;;;;0.97;99.88;100056.73;1694970;83;21021;-80
2021/12/15 02:30:38;;;;;;;4.78;2.55;;;;;;;0.98;99.54;100054.61;1699693;83;21145;-79
2021/12/15 02:33:08;;;;;;;2.33;2.10;;;;;;;0.98;99.42;100057.17;1681346;83;21079;-80
2021/12/15 02:38:03;;;;;;;2.35;2.00;;;;;;;0.97;99.46;100053.75;1647077;86;21508;-80
2021/12/15 02:40:32;;;;;;;2.77;2.12;;;;;;;0.96;99.10;100050.76;1699348;83;21133;-79
2021/12/15 02:43:00;;;;;;;2.33;1.90;;;;;;;0.95;98.70;100054.59;1698789;83;21705;-80
2021/12/15 02:45:26;;;;;;;2.85;2.10;;;;;;;0.92;98.75;100064.38;1688622;83;21053;-80
2021/12/15 02:47:54;;;;;;;2.42;1.95;;;;;;;0.94;98.88;100055.01;1637887;86;21120;-80
2021/12/15 02:50:24;;;;;;;3.05;2.20;;;;;;;0.93;98.67;100051.16;1693557;84;21541;-80
2021/12/15 02:52:51;;;;;;;3.33;2.30;;;;;;;0.92;98.67;100057.13;1685307;83;20966;-80
2021/12/15 02:55:17;;;;;;;2.35;2.15;;;;;;;0.92;98.83;100060.54;1641986;86;20992;-80
2021/12/15 02:57:45;;;;;;;2.27;2.00;;;;;;;0.95;98.99;100058.43;1663416;85;21482;-81
2021/12/15 03:00:19;;;;;;;2.92;2.33;;;;;;;0.93;98.65;100062.26;1674457;83;21014;-82
2021/12/15 03:03:31;;;;;;;2.70;2.35;;;;;;;0.93;98.59;100057.13;1691538;83;21172;-80
2021/12/15 03:05:42;;;;;;;3.22;2.67;;;;;;;0.89;98.54;100061.80;1700874;84;20999;-80
2021/12/15 03:08:25;;;;;;;2.72;2.35;;;;;;;0.89;98.90;100061.80;1693457;83;21082;-81
2021/12/15 03:16:07;;;;;;;3.10;2.65;;;;;;;0.89;99.46;100049.41;1704540;83;21620;-80
2021/12/15 03:18:35;;;;;;;2.52;2.30;;;;;;;0.91;99.35;100051.14;1704581;83;20948;-79
2021/12/15 03:21:15;;;;;;;3.85;2.50;;;;;;;0.90;99.32;100049.42;1679186;83;20959;-80
2021/12/15 03:23:54;;;;;;;3.98;2.72;;;;;;;0.91;99.57;100046.02;1706016;83;21423;-80
2021/12/15 03:26:42;;;;;;;3.85;2.77;;;;;;;0.94;99.39;100057.99;1699837;83;21194;-79
2021/12/15 03:34:45;;;;;;;3.30;3.00;;;;;;;0.92;99.28;100055.42;1687284;82;21073;-80
2021/12/15 03:37:23;;;;;;;4.20;2.52;;;;;;;0.92;99.46;100055.42;1699282;83;21531;-78
2021/12/15 03:39:57;;;;;;;3.52;2.77;;;;;;;0.95;99.39;100063.55;1679192;83;21020;-79
2021/12/15 03:42:33;;;;;;;2.42;2.22;;;;;;;0.95;99.46;100054.59;1702186;84;21134;-79
2021/12/15 03:45:00;;;;;;;2.85;2.42;;;;;;;0.96;99.48;100060.14;1694036;83;21427;-80
2021/12/15 03:47:31;;;;;;;3.10;2.75;;;;;;;0.96;99.44;100064.84;1692871;83;21712;-79
2021/12/15 03:49:57;;;;;;;3.80;2.52;;;;;;;0.95;99.37;100066.11;1697963;83;21007;-79
2021/12/15 03:52:25;;;;;;;2.85;2.55;;;;;;;0.94;99.42;100069.09;1694045;83;21052;-79
2021/12/15 03:54:51;;;;;;;2.90;2.60;;;;;;;0.94;99.53;100057.99;1680456;83;21103;-79
2021/12/15 03:57:20;;;;;;;2.98;2.65;;;;;;;0.94;99.56;100067.81;1697968;82;21095;-79
2021/12/15 03:59:46;;;;;;;3.47;2.70;;;;;;;0.94;99.68;100072.94;1685805;83;21545;-79
2021/12/15 04:02:17;;;;;;;3.77;2.90;;;;;;;0.91;99.66;100067.79;1699161;83;21439;-79
2021/12/15 04:04:45;;;;;;;3.67;2.50;;;;;;;0.93;99.82;100063.96;1683694;83;21601;-80
2021/12/15 04:07:12;;;;;;;3.17;2.87;;;;;;;0.95;99.83;100070.81;1690344;83;20990;-79
2021/12/15 04:09:39;;;;;;;3.83;3.15;;;;;;;0.95;99.70;100070.81;1671777;83;21095;-79
2021/12/15 04:12:07;;;;;;;3.95;3.20;;;;;;;0.93;99.71;100074.20;1687024;83;21051;-78
2021/12/15 04:14:42;;;;;;;3.30;2.90;;;;;;;0.90;99.80;100084.00;1690432;83;21011;-79
2021/12/15 04:17:06;;;;;;;3.52;3.10;;;;;;;0.91;100.00;100087.42;1700804;83;21007;-79
2021/12/15 04:19:35;;;;;;;3.17;2.77;;;;;;;0.90;100.00;100085.70;1697146;83;21034;-79
2021/12/15 04:22:03;;;;;;;3.95;2.52;;;;;;;0.86;100.00;100087.80;1699877;83;21470;-79
2021/12/15 04:24:30;;;;;;;2.67;2.47;;;;;;;0.83;99.74;100094.17;1688009;83;21059;-79
2021/12/15 04:26:58;;;;;;;2.98;2.40;;;;;;;0.78;99.60;100094.16;1692158;83;21066;-79
2021/12/15 04:29:27;;;;;;;2.87;2.58;;;;;;;0.75;99.93;100102.23;1674545;84;20975;-79
2021/12/15 04:31:59;;;;;;;3.27;2.87;;;;;;;0.73;100.00;100106.06;1700655;83;21583;-79
2021/12/15 04:34:26;;;;;;;2.97;2.67;;;;;;;0.74;100.00;100113.32;1700753;83;21063;-79
2021/12/15 04:36:53;;;;;;;2.45;2.25;;;;;;;0.78;100.00;100113.79;1682732;84;20978;-79
2021/12/15 04:39:25;;;;;;;2.98;2.67;;;;;;;0.79;100.00;100107.83;1673356;83;21059;-79
2021/12/15 04:41:52;;;;;;;3.45;2.98;;;;;;;0.80;100.00;100109.54;1708506;83;20939;-79
2021/12/15 04:44:23;;;;;;;4.47;3.58;;;;;;;0.82;100.00;100112.94;1699790;83;21497;-79
2021/12/15 04:46:59;;;;;;;3.17;2.85;;;;;;;0.82;100.00;100118.06;1696799;83;20952;-78
2021/12/15 04:49:22;;;;;;;2.42;2.22;;;;;;;0.85;100.00;100109.98;1693961;82;20985;-78
2021/12/15 04:51:48;;;;;;;3.45;2.70;;;;;;;0.86;100.00;100118.11;1702906;82;20978;-79
2021/12/15 04:54:17;;;;;;;2.80;2.50;;;;;;;0.83;100.00;100117.22;1699237;83;20951;-78
2021/12/15 04:56:43;;;;;;;3.45;2.72;;;;;;;0.83;100.00;100121.06;1668662;83;21016;-78
2021/12/15 04:59:12;;;;;;;3.30;2.33;;;;;;;0.83;100.00;100115.52;1662814;83;20970;-78
2021/12/15 05:01:39;;;;;;;2.72;2.40;;;;;;;0.86;100.00;100123.66;1666075;83;21003;-79
2021/12/15 05:04:06;;;;;;;3.30;2.58;;;;;;;0.85;100.00;100119.38;1698385;83;21007;-79
2021/12/15 05:06:34;;;;;;;3.12;2.55;;;;;;;0.83;100.00;100127.46;1698500;83;20956;-79
2021/12/15 05:09:01;;;;;;;2.92;2.47;;;;;;;0.76;100.00;100134.67;1703104;83;21579;-79
2021/12/15 05:11:28;;;;;;;2.60;2.27;;;;;;;0.70;100.00;100126.52;1672525;84;21011;-78
2021/12/15 05:13:55;;;;;;;2.92;2.52;;;;;;;0.70;100.00;100134.19;1694468;83;21089;-79
2021/12/15 05:16:23;;;;;;;3.90;3.08;;;;;;;0.69;100.00;100132.05;1710023;83;21001;-80
2021/12/15 05:18:49;;;;;;;3.27;2.67;;;;;;;0.71;100.00;100145.30;1703836;83;20959;-80
2021/12/15 05:21:17;;;;;;;3.05;2.77;;;;;;;0.67;100.00;100137.58;1698297;83;21639;-79
2021/12/15 05:23:49;;;;;;;2.58;2.37;;;;;;;0.68;100.00;100138.02;1630993;86;21016;-80
2021/12/15 05:26:14;;;;;;;2.80;2.47;;;;;;;0.67;100.00;100135.02;1617925;87;21035;-80
2021/12/15 05:28:41;;;;;;;3.85;3.02;;;;;;;0.66;100.00;100138.42;1634203;87;21054;-79
2021/12/15 05:31:07;;;;;;;3.17;2.60;;;;;;;0.66;100.00;100140.12;1637267;86;21114;-80
2021/12/15 05:33:33;;;;;;;3.25;2.90;;;;;;;0.66;100.00;100129.47;1638343;86;22812;-80
2021/12/15 05:36:00;;;;;;;2.85;2.52;;;;;;;0.66;100.00;100140.98;1641913;87;21063;-80
2021/12/15 05:38:26;;;;;;;3.25;2.85;;;;;;;0.67;100.00;100152.08;1621125;87;21114;-80
2021/12/15 05:40:54;;;;;;;4.25;3.22;;;;;;;0.68;100.00;100143.56;1698878;83;21132;-79
2021/12/15 05:43:20;;;;;;;2.50;2.22;;;;;;;0.69;100.00;100141.44;1697395;82;21006;-80
2021/12/15 05:45:48;;;;;;;2.20;2.00;;;;;;;0.73;100.00;100148.73;1677978;83;21146;-80
2021/12/15 05:48:16;;;;;;;2.90;2.52;;;;;;;0.72;99.63;100155.97;1688523;83;21003;-80
2021/12/15 05:50:44;;;;;;;2.75;2.40;;;;;;;0.67;99.43;100147.82;1699114;83;21120;-78
2021/12/15 05:53:11;;;;;;;3.35;2.22;;;;;;;0.70;99.22;100140.59;1683523;83;21019;-79
2021/12/15 05:55:39;;;;;;;2.33;2.10;;;;;;;0.71;98.91;100156.81;1710281;83;20975;-80
2021/12/15 05:58:06;;;;;;;3.83;2.60;;;;;;;0.71;98.84;100151.70;1698907;83;21568;-80
2021/12/15 06:00:35;;;;;;;2.55;2.35;;;;;;;0.70;98.83;100152.11;1662808;84;21488;-80
2021/12/15 06:03:02;;;;;;;2.40;2.20;;;;;;;0.68;99.00;100167.45;1671938;83;20955;-81
2021/12/15 06:05:29;;;;;;;2.45;2.10;;;;;;;0.70;99.25;100166.20;1637435;85;21034;-81
2021/12/15 06:07:56;;;;;;;2.65;2.45;;;;;;;0.69;98.69;100152.53;1721006;81;20942;-80
2021/12/15 06:10:25;;;;;;;2.35;2.12;;;;;;;0.71;98.53;100160.66;1730083;81;21519;-81
2021/12/15 06:12:55;;;;;;;4.33;2.58;;;;;;;0.66;98.51;100169.14;1720066;82;21741;-79
2021/12/15 06:15:24;;;;;;;2.85;2.65;;;;;;;0.65;98.48;100166.14;1694103;83;21619;-79
2021/12/15 06:17:56;;;;;;;2.60;2.33;;;;;;;0.66;98.24;100175.55;1658644;83;21038;-79
2021/12/15 06:20:25;;;;;;;3.02;2.50;;;;;;;0.64;97.95;100170.83;1730286;82;21006;-79
2021/12/15 06:22:56;;;;;;;3.62;2.35;;;;;;;0.62;97.87;100175.07;1733423;81;20943;-76
2021/12/15 06:25:23;;;;;;;3.08;2.67;;;;;;;0.61;97.94;100178.89;1727224;81;21098;-81
2021/12/15 06:27:51;;;;;;;2.87;2.62;;;;;;;0.60;97.94;100176.75;1741420;82;20994;-80
2021/12/15 06:30:18;;;;;;;2.70;2.45;;;;;;;0.62;97.95;100175.07;1724903;81;21060;-78
2021/12/15 06:32:44;;;;;;;2.98;2.70;;;;;;;0.65;97.78;100178.09;1713835;82;20951;-80
2021/12/15 06:35:11;;;;;;;3.40;2.80;;;;;;;0.67;97.90;100184.08;1711162;83;21132;-80
2021/12/15 06:37:38;;;;;;;4.05;2.92;;;;;;;0.72;98.01;100181.58;1692888;83;21037;-80
2021/12/15 06:40:08;;;;;;;3.55;2.60;;;;;;;0.78;97.88;100183.78;1712734;83;21002;-80
2021/12/15 06:42:37;;;;;;;3.05;2.27;;;;;;;0.82;97.51;100181.66;1700939;81;21014;-80
2021/12/15 06:45:05;;;;;;;3.52;2.55;;;;;;;0.87;97.34;100179.14;1737296;81;21014;-80
2021/12/15 06:57:15;;;;;;;3.37;2.50;;;;;;;0.87;97.41;100182.98;1727496;82;21128;-80
2021/12/15 06:58:23;;;;;;;3.95;2.60;;;;;;;0.94;97.72;100194.59;1705133;81;21039;-81
2021/12/15 07:00:53;;;;;;;5.78;2.90;;;;;;;0.93;97.54;100208.24;1716269;81;21147;-82
2021/12/15 07:03:21;;;;;;;3.08;2.20;;;;;;;0.89;97.74;100200.09;1694473;82;21085;-80
2021/12/15 07:05:48;;;;;;;2.75;2.45;;;;;;;0.89;97.82;100202.65;1729241;82;21053;-81
2021/12/15 07:08:15;;;;;;;2.67;2.20;;;;;;;0.90;97.84;100209.49;1728005;82;21156;-80
2021/12/15 07:10:49;;;;;;;2.47;2.27;;;;;;;0.89;97.84;100201.37;1735355;81;20982;-80
2021/12/15 07:13:21;;;;;;;5.12;4.08;;;;;;;0.88;98.13;100205.19;1733749;80;22542;-82
2021/12/15 07:15:52;;;;;;;4.55;3.40;;;;;;;0.84;98.59;100204.30;1731017;81;21147;-81
2021/12/15 07:18:27;;;;;;;4.47;2.77;;;;;;;0.87;98.70;100209.87;1729458;81;21052;-80
2021/12/15 07:20:51;;;;;;;2.87;2.50;;;;;;;0.86;98.64;100210.30;1741963;81;21089;-81
2021/12/15 07:23:22;;;;;;;3.10;2.75;;;;;;;0.78;98.98;100220.91;1743443;81;21037;-82
2021/12/15 07:25:50;;;;;;;4.55;3.30;;;;;;;0.74;99.36;100206.36;1740289;81;21115;-81
2021/12/15 07:28:19;;;;;;;2.92;2.62;;;;;;;0.74;99.72;100205.07;1706263;82;21644;-80
2021/12/15 07:30:48;;;;;;;3.27;2.50;;;;;;;0.76;99.95;100208.93;1701817;82;21028;-81
2021/12/15 07:33:15;;;;;;;3.67;2.90;;;;;;;0.75;100.00;100210.63;1731916;82;22158;-80
2021/12/15 07:35:43;;;;;;;3.85;2.87;;;;;;;0.71;100.00;100216.56;1725429;81;21092;-80
2021/12/15 07:38:11;;;;;;;5.20;4.00;;;;;;;0.71;100.00;100215.28;1741180;80;21283;-80
2021/12/15 07:40:40;;;;;;;4.10;3.25;;;;;;;0.73;100.00;100212.31;1724459;81;21138;-80
2021/12/15 07:43:12;;;;;;;3.77;3.08;;;;;;;0.72;100.00;100217.42;1741747;81;21512;-79
2021/12/15 07:45:46;;;;;;;4.33;3.08;;;;;;;0.72;100.00;100214.44;1699257;81;21033;-79
2021/12/15 07:48:15;;;;;;;4.35;2.70;;;;;;;0.71;100.00;100211.44;1711416;82;21041;-79
2021/12/15 07:50:45;;;;;;;2.40;2.15;;;;;;;0.72;100.00;100214.44;1726750;81;21138;-79
2021/12/15 07:53:12;;;;;;;2.65;2.42;;;;;;;0.78;100.00;100222.61;1714453;81;21002;-79
2021/12/15 07:55:54;;;;;;;2.45;2.02;;;;;;;0.82;100.00;100221.35;1726488;82;21501;-79
2021/12/15 07:58:26;;;;;;;3.30;2.60;;;;;;;0.85;100.00;100220.52;1733598;82;21625;-79
2021/12/15 08:00:53;;;;;;;4.03;3.12;;;;;;;0.87;100.00;100225.24;1710664;81;21041;-81
2021/12/15 08:03:20;;;;;;;7.55;4.37;;;;;;;0.84;100.00;100222.65;1725042;81;21133;-78
2021/12/15 08:05:49;;;;;;;4.58;3.05;;;;;;;0.84;100.00;100222.65;1717898;82;21465;-78
2021/12/15 08:08:17;;;;;;;1.70;1.60;;;;;;;0.87;100.00;100224.83;1735086;82;21021;-79
2021/12/15 08:10:45;;;;;;;2.27;1.85;;;;;;;0.90;100.00;100228.70;1720725;82;20987;-79
2021/12/15 08:13:12;;;;;;;1.70;1.60;;;;;;;0.92;100.00;100244.94;1725473;80;20985;-78
2021/12/15 08:15:39;;;;;;;2.17;1.98;;;;;;;0.92;100.00;100239.82;1727309;82;21569;-80
2021/12/15 08:18:06;;;;;;;3.83;2.70;;;;;;;0.95;100.00;100240.27;1671261;82;20963;-79
2021/12/15 08:20:33;;;;;;;3.75;2.67;;;;;;;0.98;100.00;100237.75;1734345;81;21002;-80
2021/12/15 08:23:00;;;;;;;3.83;2.90;;;;;;;1.02;99.69;100242.89;1725856;81;21561;-80
2021/12/15 08:25:30;;;;;;;3.02;2.72;;;;;;;1.03;99.35;100242.05;1727295;81;21021;-79
2021/12/15 08:27:57;;;;;;;2.77;2.30;;;;;;;1.05;98.93;100238.22;1700498;81;21873;-81
2021/12/15 08:30:27;;;;;;;2.55;2.35;;;;;;;1.03;98.34;100236.92;1724993;81;21034;-78
2021/12/15 08:32:58;;;;;;;2.58;2.37;;;;;;;1.02;98.29;100248.02;1720337;82;21020;-80
2021/12/15 08:35:29;;;;;;;4.33;2.52;;;;;;;1.02;98.41;100238.19;1727139;82;21059;-77
2021/12/15 08:37:57;;;;;;;2.35;2.12;;;;;;;1.06;97.88;100240.36;1718391;83;21142;-81
2021/12/15 08:40:24;;;;;;;2.27;2.02;;;;;;;1.07;97.61;100239.09;1727334;81;21100;-79
2021/12/15 08:42:52;;;;;;;2.92;2.62;;;;;;;1.08;97.45;100239.95;1727224;82;21540;-79
2021/12/15 08:45:18;;;;;;;2.62;2.30;;;;;;;1.08;97.08;100239.53;1730130;81;21013;-78
2021/12/15 08:47:45;;;;;;;2.95;2.50;;;;;;;1.09;97.07;100236.13;1723465;82;21061;-81
2021/12/15 08:50:15;;;;;;;3.00;2.60;;;;;;;1.11;96.84;100238.28;1703085;81;21013;-80
2021/12/15 08:52:42;;;;;;;3.10;2.60;;;;;;;1.13;96.97;100239.58;1724568;81;21805;-80
2021/12/15 08:55:09;;;;;;;2.85;2.45;;;;;;;1.18;96.61;100245.61;1728391;81;21486;-81
2021/12/15 08:57:47;;;;;;;3.22;2.67;;;;;;;1.23;96.29;100230.69;1715766;82;21559;-81
2021/12/15 09:00:11;;;;;;;3.25;2.67;;;;;;;1.30;96.42;100232.89;1712384;83;21022;-79
2021/12/15 09:02:38;;;;;;;2.22;2.02;;;;;;;1.37;96.10;100241.08;1713578;82;21022;-82
2021/12/15 09:05:06;;;;;;;3.25;2.00;;;;;;;1.45;94.89;100252.65;1693467;81;21199;-79
2021/12/15 09:07:33;;;;;;;3.25;2.45;;;;;;;1.44;94.42;100240.67;1739079;82;21558;-80
2021/12/15 09:10:02;;;;;;;2.47;2.27;;;;;;;1.42;94.44;100235.53;1737653;82;20995;-82
2021/12/15 09:12:29;;;;;;;3.33;2.25;;;;;;;1.46;94.45;100238.56;1698404;82;21145;-76
2021/12/15 09:14:55;;;;;;;2.95;1.72;;;;;;;1.45;93.65;100244.95;1711974;81;21576;-85
2021/12/15 09:17:21;;;;;;;2.35;1.98;;;;;;;1.39;92.98;100238.10;1725787;82;21067;-83
2021/12/15 09:19:48;;;;;;;2.12;1.70;;;;;;;1.34;93.07;100237.20;1710880;82;21008;-81
2021/12/15 09:22:15;;;;;;;3.75;2.00;;;;;;;1.29;93.39;100239.72;1720698;81;21170;-78
2021/12/15 09:24:42;;;;;;;2.70;2.02;;;;;;;1.30;93.66;100233.75;1702796;82;21030;-81
2021/12/15 09:27:08;;;;;;;2.42;1.90;;;;;;;1.36;93.89;100232.52;1730098;81;21469;-81
2021/12/15 09:29:38;;;;;;;5.05;1.77;;;;;;;1.43;93.03;100233.83;1701569;82;21103;-89
2021/12/15 09:32:06;;;;;;;2.00;1.70;;;;;;;1.44;92.48;100238.11;1709076;83;21582;-82
2021/12/15 09:34:35;;;;;;;1.90;1.70;;;;;;;1.42;92.15;100239.80;1706316;82;20955;-79
2021/12/15 09:37:04;;;;;;;2.50;1.70;;;;;;;1.37;92.27;100240.65;1732729;81;20967;-80
2021/12/15 09:39:31;;;;;;;1.90;1.65;;;;;;;1.36;92.17;100236.80;1706726;81;21589;-75
2021/12/15 09:41:59;;;;;;;2.00;1.80;;;;;;;1.32;92.16;100235.05;1727473;81;21507;-80
2021/12/15 09:44:28;;;;;;;3.22;1.85;;;;;;;1.23;92.32;100232.39;1729562;81;21069;-80
2021/12/15 09:47:13;;;;;;;2.50;1.85;;;;;;;1.17;92.50;100242.61;1692666;82;21117;-84
2021/12/15 10:03:33;;;;;;;4.20;2.20;;;;;;;0.94;93.90;100225.75;1738258;81;21004;-76
2021/12/15 10:06:20;;;;;;;2.30;1.72;;;;;;;0.90;94.12;100227.42;1733955;81;21145;-76
2021/12/15 10:11:45;;;;;;;2.05;1.40;;;;;;;0.79;94.02;100230.73;1709499;81;21132;-83
2021/12/15 10:19:40;;;;;;;2.00;1.70;;;;;;;0.71;94.72;100229.36;1731754;81;21074;-79
2021/12/15 10:22:40;;;;;;;1.87;1.30;;;;;;;0.71;94.56;100229.36;1736772;81;21270;-80
2021/12/15 10:25:26;;;;;;;1.60;1.20;;;;;;;0.68;94.47;100235.30;1736684;81;20937;-82
2021/12/15 10:28:03;;;;;;;1.57;0.90;;;;;;;0.65;93.93;100223.75;1742678;81;20986;-80
2021/12/15 10:30:34;;;;;;;1.65;1.10;;;;;;;0.62;93.16;100218.59;1733735;81;21072;-80
2021/12/15 10:33:06;;;;;;;1.30;1.10;;;;;;;0.60;93.04;100219.45;1732174;81;21057;-80
2021/12/15 10:35:50;;;;;;;1.57;1.20;;;;;;;0.60;92.96;100225.84;1734185;81;21155;-80
2021/12/15 10:38:29;;;;;;;1.65;1.32;;;;;;;0.59;93.10;100222.42;1702936;81;21679;-80
2021/12/15 10:41:11;;;;;;;2.60;1.40;;;;;;;0.59;92.98;100221.56;1702029;81;21089;-80
2021/12/15 10:44:04;;;;;;;1.35;1.25;;;;;;;0.52;92.69;100218.48;1707919;81;21037;-81
2021/12/15 10:46:35;;;;;;;6.28;3.95;;;;;;;0.45;92.58;100222.67;1721496;80;21085;-81
2021/12/15 10:49:12;;;;;;;7.17;5.72;;;;;;;0.42;92.89;100222.63;1727534;80;21931;-81
2021/12/15 10:52:06;;;;;;;2.12;1.90;;;;;;;0.42;92.92;100221.77;1688424;83;21400;-82
2021/12/15 10:54:44;;;;;;;1.47;1.30;;;;;;;0.43;92.98;100224.77;1671305;83;21100;-80
2021/12/15 10:57:13;;;;;;;2.60;1.72;;;;;;;0.39;92.24;100225.61;1680565;82;21086;-80
2021/12/15 10:59:48;;;;;;;1.47;1.20;;;;;;;0.35;92.36;100217.03;1659277;85;21181;-79
2021/12/15 11:02:25;;;;;;;1.45;1.35;;;;;;;0.35;92.13;100210.63;1697310;83;21180;-79
2021/12/15 11:05:00;;;;;;;2.58;1.82;;;;;;;0.31;91.19;100203.75;1698577;83;20988;-80
2021/12/15 11:07:34;;;;;;;2.42;1.50;;;;;;;0.29;91.31;100213.11;1656239;83;21142;-80
2021/12/15 11:10:25;;;;;;;1.20;1.10;;;;;;;0.28;91.26;100210.97;1725891;81;21029;-79
2021/12/15 11:13:01;;;;;;;2.27;1.90;;;;;;;0.27;91.08;100209.67;1731903;82;21505;-82
2021/12/15 11:15:42;;;;;;;1.90;1.62;;;;;;;0.26;91.03;100215.20;1704547;81;21113;-80
2021/12/15 11:18:19;;;;;;;1.42;1.30;;;;;;;0.25;90.80;100207.09;1726975;81;21072;-80
2021/12/15 11:20:54;;;;;;;1.80;1.45;;;;;;;0.25;90.61;100204.53;1728032;81;20958;-80
2021/12/15 11:23:23;;;;;;;2.33;1.35;;;;;;;0.20;90.19;100215.12;1720624;82;21001;-83
2021/12/15 11:26:00;;;;;;;1.75;1.65;;;;;;;0.11;90.16;100203.52;1736302;81;21086;-79
2021/12/15 11:28:45;;;;;;;2.02;1.80;;;;;;;0.05;90.08;100216.22;1712308;82;20981;-79
2021/12/15 11:31:26;;;;;;;2.00;1.80;;;;;;;-0.02;89.64;100210.61;1731430;81;20993;-79
2021/12/15 11:34:03;;;;;;;1.90;1.80;;;;;;;-0.11;89.74;100208.78;1700398;81;20961;-81
2021/12/15 11:36:44;;;;;;;2.30;1.70;;;;;;;-0.15;89.76;100209.98;1700394;82;21108;-80
2021/12/15 11:39:13;;;;;;;2.87;2.30;;;;;;;-0.24;89.57;100211.16;1716799;82;21553;-80
2021/12/15 11:41:43;;;;;;;1.87;1.77;;;;;;;-0.31;90.08;100204.23;1726888;82;21053;-80
2021/12/15 11:44:14;;;;;;;2.25;2.00;;;;;;;-0.30;90.03;100211.06;1711830;82;21081;-80
2021/12/15 11:46:54;;;;;;;3.20;2.83;;;;;;;-0.33;89.56;100205.91;1714279;82;20986;-81
2021/12/15 11:49:31;;;;;;;5.85;4.45;;;;;;;-0.38;89.61;100216.91;1671353;83;21584;-77
2021/12/15 11:52:01;;;;;;;4.65;2.77;;;;;;;-0.43;89.32;100218.57;1683744;83;20991;-82
2021/12/15 11:54:38;;;;;;;3.33;2.50;;;;;;;-0.43;89.43;100215.16;1702608;83;21145;-79
2021/12/15 11:57:22;;;;;;;3.20;2.90;;;;;;;-0.41;89.45;100210.92;1708160;83;21051;-76
2021/12/15 11:59:52;;;;;;;4.90;3.95;;;;;;;-0.42;89.53;100215.18;1689135;83;21034;-84
2021/12/15 12:02:37;;;;;;;4.53;3.35;;;;;;;-0.39;89.65;100216.47;1687857;83;20993;-78
2021/12/15 12:05:09;;;;;;;4.72;3.33;;;;;;;-0.40;88.94;100219.04;1684598;83;20930;-74
2021/12/15 12:07:44;;;;;;;5.00;3.63;;;;;;;-0.45;89.52;100225.35;1682110;83;21337;-78
2021/12/15 12:10:26;;;;;;;4.35;3.35;;;;;;;-0.42;89.54;100218.15;1701836;83;21525;-76
2021/12/15 12:13:05;;;;;;;5.25;4.75;;;;;;;-0.37;89.47;100214.80;1701781;83;21588;-77
2021/12/15 12:15:41;;;;;;;4.83;4.30;;;;;;;-0.36;88.60;100211.41;1722602;82;21076;-78
2021/12/15 12:18:11;;;;;;;4.90;4.15;;;;;;;-0.39;88.78;100224.14;1731707;81;20997;-77
2021/12/15 12:20:43;;;;;;;4.78;3.98;;;;;;;-0.44;87.83;100218.55;1718289;82;21170;-81
2021/12/15 12:23:19;;;;;;;8.15;4.75;;;;;;;-0.51;87.87;100223.11;1723189;82;21037;-76
2021/12/15 12:25:50;;;;;;;4.53;3.98;;;;;;;-0.49;88.37;100228.69;1715628;82;21027;-81
2021/12/15 12:28:24;;;;;;;4.03;3.50;;;;;;;-0.45;88.16;100225.77;1725875;82;21098;-80
2021/12/15 12:30:55;;;;;;;4.40;3.72;;;;;;;-0.45;87.80;100224.08;1724848;81;21053;-80
2021/12/15 12:33:23;;;;;;;3.80;3.40;;;;;;;-0.45;87.66;100237.27;1723145;82;21783;-78
2021/12/15 12:36:06;;;;;;;3.85;3.55;;;;;;;-0.46;87.80;100232.58;1720099;81;21050;-73